Time;durP1;ratioP1;P1;durP2;ratioP2;P2;SDS_P1;SDS_P2;PMS_P1;PMS_P2;Temp;Humidity;BMP_temperature;BMP_pressure;BME280_temperature;BME280_humidity;BME280_pressure;Samples;Min_cycle;Max_cycle;Signal;HPM_P1;HPM_P2
2022/06/19 00:02:01;;;;;;;6.03;3.25;;;20.10;99.90;;;;;;5091634;28;20020;-49
2022/06/19 00:04:27;;;;;;;5.50;4.72;;;20.10;99.90;;;;;;5056132;28;20089;-48
2022/06/19 00:06:56;;;;;;;4.38;3.38;;;20.00;99.90;;;;;;5092087;28;20115;-49
2022/06/19 00:09:23;;;;;;;5.28;4.07;;;19.90;99.90;;;;;;5092511;28;20073;-48
2022/06/19 00:11:49;;;;;;;4.22;3.67;;;19.90;99.90;;;;;;5092170;28;20028;-48
2022/06/19 00:14:16;;;;;;;4.38;3.67;;;19.90;99.90;;;;;;5049194;28;20052;-48
2022/06/19 00:16:41;;;;;;;4.38;3.45;;;19.80;99.90;;;;;;5048816;28;20156;-48
2022/06/19 00:19:07;;;;;;;6.13;3.72;;;19.80;99.90;;;;;;5051067;28;20091;-48
2022/06/19 00:21:33;;;;;;;6.47;3.90;;;19.60;99.90;;;;;;5024985;28;20052;-48
2022/06/19 00:23:59;;;;;;;7.13;3.55;;;19.70;99.90;;;;;;5053149;28;20040;-48
2022/06/19 00:26:25;;;;;;;6.10;3.40;;;19.70;99.90;;;;;;5053049;28;20035;-48
2022/06/19 00:28:51;;;;;;;4.90;3.60;;;19.60;99.90;;;;;;5049186;28;20036;-48
2022/06/19 00:31:17;;;;;;;6.25;4.05;;;19.70;99.90;;;;;;5053024;28;20037;-48
2022/06/19 00:33:44;;;;;;;8.65;4.07;;;19.70;99.90;;;;;;5052832;28;20544;-48
2022/06/19 00:36:10;;;;;;;7.80;4.07;;;19.80;99.90;;;;;;5020115;28;20118;-48
2022/06/19 00:38:35;;;;;;;8.15;3.70;;;19.70;99.90;;;;;;5052785;28;20033;-48
2022/06/19 00:41:02;;;;;;;6.53;4.30;;;19.80;99.90;;;;;;5052709;28;20080;-49
2022/06/19 00:43:29;;;;;;;8.20;4.90;;;19.60;99.90;;;;;;5011843;28;20066;-48
2022/06/19 00:46:03;;;;;;;6.78;5.18;;;19.00;99.90;;;;;;5079105;28;20069;-49
2022/06/19 00:48:32;;;;;;;6.40;4.65;;;19.10;99.90;;;;;;5093441;28;20509;-48
2022/06/19 00:51:00;;;;;;;10.00;4.85;;;;;;;;;;5090700;28;20475;-48
2022/06/19 00:53:46;;;;;;;6.85;4.70;;;19.00;99.90;;;;;;5090251;28;20046;-48
2022/06/19 00:56:18;;;;;;;7.25;5.20;;;18.60;99.90;;;;;;5090066;28;20024;-48
2022/06/19 00:58:45;;;;;;;6.47;5.22;;;18.90;99.90;;;;;;5093507;28;20379;-48
2022/06/19 01:01:15;;;;;;;9.18;5.35;;;18.80;99.90;;;;;;5089968;28;20036;-48
2022/06/19 01:04:16;;;;;;;6.05;4.68;;;19.00;99.90;;;;;;5060416;28;20531;-48
2022/06/19 01:06:42;;;;;;;6.15;4.88;;;18.90;99.90;;;;;;5093588;28;20093;-48
2022/06/19 01:09:09;;;;;;;8.90;5.45;;;;;;;;;;5090331;28;20488;-48
2022/06/19 01:11:37;;;;;;;6.78;4.95;;;;;;;;;;5092385;28;20028;-48
2022/06/19 01:14:05;;;;;;;8.48;5.10;;;;;;;;;;5092009;28;20040;-48
2022/06/19 01:16:31;;;;;;;6.65;4.55;;;;;;;;;;5089134;28;20024;-48
2022/06/19 01:19:00;;;;;;;5.28;4.78;;;;;;;;;;5094814;28;20028;-48
2022/06/19 01:21:29;;;;;;;7.50;5.20;;;;;;;;;;5090611;28;20044;-48
2022/06/19 01:24:09;;;;;;;7.75;5.38;;;;;;;;;;5087924;28;20043;-49
2022/06/19 01:26:42;;;;;;;12.63;5.43;;;18.90;99.90;;;;;;5094308;28;20114;-48
2022/06/19 01:29:09;;;;;;;14.30;5.93;;;19.00;99.90;;;;;;5086506;28;20024;-48
2022/06/19 01:31:41;;;;;;;8.30;4.72;;;18.90;99.90;;;;;;5087696;28;20415;-48
2022/06/19 01:36:59;;;;;;;8.80;5.38;;;18.90;99.90;;;;;;5092916;28;19911;-48
2022/06/19 01:39:27;;;;;;;8.68;5.15;;;18.70;99.90;;;;;;5093506;28;20028;-48
2022/06/19 01:41:53;;;;;;;5.55;4.72;;;18.50;99.90;;;;;;5087220;28;20107;-48
2022/06/19 01:44:18;;;;;;;7.88;6.05;;;18.40;99.90;;;;;;5094996;28;20107;-47
2022/06/19 01:46:44;;;;;;;7.70;5.03;;;18.50;99.90;;;;;;5073911;28;20028;-48
2022/06/19 01:49:10;;;;;;;7.07;5.03;;;18.20;99.90;;;;;;5059806;28;20040;-48
2022/06/19 01:51:37;;;;;;;6.28;5.13;;;18.30;99.90;;;;;;5056807;28;20043;-48
2022/06/19 01:54:13;;;;;;;6.65;4.63;;;18.30;99.90;;;;;;5092021;28;20032;-48
2022/06/19 01:56:40;;;;;;;6.82;5.03;;;18.30;99.90;;;;;;5092941;28;20062;-48
2022/06/19 01:59:09;;;;;;;6.90;4.80;;;18.10;99.90;;;;;;5075637;28;20031;-48
2022/06/19 02:01:37;;;;;;;7.60;5.43;;;18.10;99.90;;;;;;5087708;28;20442;-47
2022/06/19 02:04:06;;;;;;;6.00;4.68;;;18.20;99.90;;;;;;5073338;28;21238;-48
2022/06/19 02:06:43;;;;;;;5.05;4.55;;;18.20;99.90;;;;;;5089772;28;20021;-48
2022/06/19 02:09:09;;;;;;;6.25;5.03;;;18.20;99.90;;;;;;5089835;28;20525;-48
2022/06/19 02:11:36;;;;;;;9.45;4.53;;;18.10;99.90;;;;;;5093610;28;20036;-48
2022/06/19 02:14:05;;;;;;;6.10;4.35;;;18.20;99.90;;;;;;5074427;28;20052;-48
2022/06/19 02:16:36;;;;;;;6.35;5.28;;;18.30;99.90;;;;;;5093088;28;20032;-48
2022/06/19 02:19:03;;;;;;;10.53;4.90;;;18.30;99.90;;;;;;5092499;28;20055;-48
2022/06/19 02:21:44;;;;;;;7.28;4.45;;;18.30;99.90;;;;;;5055557;28;20144;-48
2022/06/19 02:24:15;;;;;;;5.05;4.55;;;18.30;99.90;;;;;;5092848;28;20062;-49
2022/06/19 02:26:43;;;;;;;6.00;5.40;;;18.40;99.90;;;;;;5054597;28;20044;-47
2022/06/19 02:29:11;;;;;;;7.95;5.30;;;18.40;99.90;;;;;;5073523;28;20456;-47
2022/06/19 02:31:40;;;;;;;7.40;4.95;;;18.40;99.90;;;;;;5090063;28;20058;-48
2022/06/19 02:34:15;;;;;;;5.95;5.35;;;18.40;99.90;;;;;;5087029;28;20047;-48
2022/06/19 02:36:48;;;;;;;5.78;5.00;;;18.40;99.90;;;;;;5089046;28;20440;-47
2022/06/19 02:39:18;;;;;;;11.15;5.63;;;18.30;99.90;;;;;;5090251;28;20032;-48
2022/06/19 02:42:00;;;;;;;8.45;4.93;;;18.30;99.90;;;;;;5092207;28;20020;-47
2022/06/19 02:44:31;;;;;;;;;;;18.20;99.90;;;;;;5092528;28;20035;-48
2022/06/19 02:46:57;;;;;;;7.28;4.70;;;18.20;99.90;;;;;;5088753;28;19908;-47
2022/06/19 02:49:22;;;;;;;5.80;4.80;;;18.20;99.90;;;;;;5092178;28;20445;-47
2022/06/19 02:51:48;;;;;;;7.63;5.20;;;18.10;99.90;;;;;;5091967;28;20067;-47
2022/06/19 02:54:14;;;;;;;10.95;5.40;;;18.10;99.90;;;;;;5090199;28;20043;-47
2022/06/19 02:56:40;;;;;;;7.82;4.97;;;18.10;99.90;;;;;;5091611;28;20080;-47
2022/06/19 02:59:05;;;;;;;6.30;5.18;;;18.20;99.90;;;;;;5086958;28;20032;-47
2022/06/19 03:01:31;;;;;;;10.52;6.28;;;18.20;99.90;;;;;;5089028;28;20039;-47
2022/06/19 03:03:57;;;;;;;9.02;5.07;;;18.20;99.90;;;;;;5090341;28;20107;-47
2022/06/19 03:06:23;;;;;;;9.85;4.63;;;18.20;99.90;;;;;;5052145;28;20028;-47
2022/06/19 03:08:49;;;;;;;7.80;5.00;;;18.20;99.90;;;;;;5092072;28;20028;-48
2022/06/19 03:11:14;;;;;;;8.02;4.93;;;18.20;99.90;;;;;;5089727;28;20024;-47
2022/06/19 03:13:40;;;;;;;9.15;5.18;;;18.20;99.90;;;;;;5087735;28;20032;-47
2022/06/19 03:16:07;;;;;;;7.07;4.53;;;18.20;99.90;;;;;;5091114;28;20475;-47
2022/06/19 03:18:35;;;;;;;8.45;5.10;;;18.10;99.90;;;;;;5090097;28;20384;-47
2022/06/19 03:21:01;;;;;;;8.23;4.70;;;17.80;99.90;;;;;;5091348;28;20036;-47
2022/06/19 03:23:27;;;;;;;6.93;4.82;;;17.80;99.90;;;;;;5084526;28;20043;-47
2022/06/19 03:25:53;;;;;;;8.48;5.18;;;17.70;99.90;;;;;;5091570;28;20067;-47
2022/06/19 03:28:19;;;;;;;7.50;4.95;;;17.90;99.90;;;;;;5072679;28;20120;-47
2022/06/19 03:30:45;;;;;;;6.13;4.80;;;18.00;99.90;;;;;;5084122;28;20056;-47
2022/06/19 03:33:11;;;;;;;8.48;4.90;;;18.00;99.90;;;;;;5038152;28;20435;-47
2022/06/19 03:35:36;;;;;;;8.50;4.90;;;18.00;99.90;;;;;;5092980;28;20040;-47
2022/06/19 03:38:02;;;;;;;4.82;4.32;;;17.80;99.90;;;;;;5089444;28;20028;-47
2022/06/19 03:40:28;;;;;;;5.70;4.82;;;17.50;99.90;;;;;;5086518;28;20020;-47
2022/06/19 03:42:53;;;;;;;6.90;4.50;;;17.60;99.90;;;;;;5090164;28;20035;-50
2022/06/19 03:45:19;;;;;;;6.78;4.65;;;17.50;99.90;;;;;;5084162;28;20025;-49
2022/06/19 03:47:45;;;;;;;5.10;4.57;;;;;;;;;;5085095;28;20533;-49
2022/06/19 03:50:15;;;;;;;6.43;5.03;;;;;;;;;;5054971;28;20119;-49
2022/06/19 03:52:41;;;;;;;5.95;4.78;;;;;;;;;;5053225;28;20036;-48
2022/06/19 03:55:08;;;;;;;5.35;4.75;;;16.30;99.90;;;;;;5076697;28;20113;-49
2022/06/19 03:57:33;;;;;;;11.00;4.75;;;16.50;99.90;;;;;;5044819;28;20046;-49
2022/06/19 03:59:59;;;;;;;9.77;5.10;;;16.30;99.90;;;;;;5091862;28;20107;-48
2022/06/19 04:02:25;;;;;;;8.48;5.00;;;;;;;;;;5095145;28;20031;-49
2022/06/19 04:04:51;;;;;;;6.18;4.72;;;;;;;;;;5092467;28;20444;-48
2022/06/19 04:07:17;;;;;;;10.77;5.07;;;;;;;;;;5054390;28;20082;-49
2022/06/19 04:09:44;;;;;;;5.47;4.68;;;;;;;;;;5075027;28;20032;-49
2022/06/19 04:12:10;;;;;;;6.28;4.93;;;17.80;99.90;;;;;;5096762;28;20127;-49
2022/06/19 04:14:36;;;;;;;11.88;5.13;;;17.90;99.90;;;;;;5093929;28;20037;-49
2022/06/19 04:17:03;;;;;;;8.15;5.18;;;18.10;99.90;;;;;;5093241;28;20074;-49
2022/06/19 04:19:29;;;;;;;6.45;4.65;;;18.30;99.90;;;;;;5044877;28;20602;-48
2022/06/19 04:21:55;;;;;;;6.80;5.00;;;18.40;99.90;;;;;;5092318;28;20078;-48
2022/06/19 04:24:21;;;;;;;6.80;4.70;;;18.70;99.90;;;;;;5095151;28;20062;-47
2022/06/19 04:26:47;;;;;;;9.15;4.22;;;18.60;99.90;;;;;;5095830;28;20060;-47
2022/06/19 04:29:13;;;;;;;7.57;4.90;;;18.80;99.90;;;;;;5073294;28;20032;-48
2022/06/19 04:31:40;;;;;;;7.55;5.00;;;18.90;99.90;;;;;;5092331;28;20476;-47
2022/06/19 04:34:05;;;;;;;6.70;4.97;;;19.00;99.90;;;;;;5090561;28;20036;-48
2022/06/19 04:36:32;;;;;;;5.88;4.97;;;19.10;99.90;;;;;;5075088;28;20028;-47
2022/06/19 04:38:58;;;;;;;8.07;4.90;;;18.90;99.90;;;;;;5091141;28;20564;-47
2022/06/19 04:41:31;;;;;;;8.15;4.50;;;19.10;99.90;;;;;;5087818;28;20024;-47
2022/06/19 04:43:58;;;;;;;8.55;5.38;;;19.10;99.90;;;;;;5065771;28;20060;-47
2022/06/19 04:46:25;;;;;;;6.90;5.25;;;19.20;99.90;;;;;;5090681;28;20031;-48
2022/06/19 04:48:51;;;;;;;7.63;5.20;;;19.10;99.90;;;;;;5060655;28;20380;-48
2022/06/19 04:51:18;;;;;;;7.15;5.25;;;19.10;99.90;;;;;;5094779;28;20028;-47
2022/06/19 04:53:44;;;;;;;5.63;4.97;;;19.00;99.90;;;;;;5092050;28;20040;-47
2022/06/19 04:56:12;;;;;;;6.68;5.00;;;19.10;99.90;;;;;;5058241;28;20037;-48
2022/06/19 04:58:38;;;;;;;6.97;5.28;;;19.10;99.90;;;;;;5094712;28;20155;-48
2022/06/19 05:01:09;;;;;;;7.72;5.88;;;19.40;99.90;;;;;;5022966;28;20119;-47
2022/06/19 05:03:35;;;;;;;6.35;5.63;;;19.50;99.90;;;;;;5095291;28;20378;-47
2022/06/19 05:06:01;;;;;;;8.25;5.70;;;19.60;99.90;;;;;;5091401;28;20027;-47
2022/06/19 05:08:26;;;;;;;7.70;4.80;;;19.80;99.90;;;;;;5073932;28;20040;-47
2022/06/19 05:10:52;;;;;;;6.72;5.30;;;19.70;99.90;;;;;;5057262;28;20603;-47
2022/06/19 05:13:20;;;;;;;7.85;5.13;;;20.00;99.90;;;;;;5073463;28;20119;-48
2022/06/19 05:15:47;;;;;;;6.25;5.20;;;20.00;99.90;;;;;;5056402;28;20062;-47
2022/06/19 05:18:14;;;;;;;6.32;5.45;;;20.00;99.90;;;;;;5090170;28;20024;-48
2022/06/19 05:20:40;;;;;;;6.18;4.53;;;20.30;99.90;;;;;;5090852;28;20081;-48
2022/06/19 05:23:07;;;;;;;7.93;6.50;;;20.50;99.90;;;;;;5059916;28;20408;-47
2022/06/19 05:25:33;;;;;;;10.82;6.88;;;20.70;99.90;;;;;;5093118;28;20494;-47
2022/06/19 05:27:59;;;;;;;10.05;7.88;;;20.70;99.90;;;;;;5090084;28;20020;-48
2022/06/19 05:30:25;;;;;;;7.80;5.15;;;20.80;99.90;;;;;;5030673;28;20097;-47
2022/06/19 05:32:51;;;;;;;7.93;5.30;;;;;;;;;;5057407;28;20032;-48
2022/06/19 05:35:17;;;;;;;9.45;5.45;;;21.50;99.90;;;;;;5093941;28;20040;-48
2022/06/19 05:37:43;;;;;;;4.88;4.38;;;21.50;99.90;;;;;;5089294;28;20031;-48
2022/06/19 05:40:09;;;;;;;7.53;4.38;;;21.70;99.90;;;;;;5093010;28;20024;-48
2022/06/19 05:42:36;;;;;;;5.63;4.38;;;21.90;99.90;;;;;;5027876;28;20032;-48
2022/06/19 05:45:02;;;;;;;6.30;4.75;;;;;;;;;;5085630;28;20111;-48
2022/06/19 05:47:27;;;;;;;6.55;4.47;;;22.20;99.90;;;;;;5090911;28;20072;-48
2022/06/19 05:49:55;;;;;;;12.05;5.15;;;22.30;99.90;;;;;;5056168;28;20060;-48
2022/06/19 05:52:24;;;;;;;7.68;4.72;;;22.50;99.90;;;;;;5088598;28;20025;-48
2022/06/19 05:54:52;;;;;;;5.00;3.80;;;22.50;99.90;;;;;;5092225;28;20044;-48
2022/06/19 05:57:17;;;;;;;6.10;3.70;;;22.70;99.90;;;;;;5090022;28;20040;-48
2022/06/19 05:59:43;;;;;;;6.65;4.00;;;22.70;99.90;;;;;;5087924;28;20036;-48
2022/06/19 06:02:13;;;;;;;5.05;3.97;;;22.90;99.90;;;;;;5058993;28;20032;-48
2022/06/19 06:04:39;;;;;;;10.35;4.50;;;23.00;99.90;;;;;;5090206;28;20067;-48
2022/06/19 06:07:11;;;;;;;6.43;4.00;;;22.90;99.90;;;;;;5062864;28;20036;-48
2022/06/19 06:09:37;;;;;;;5.43;3.80;;;;;;;;;;5090522;28;20029;-47
2022/06/19 06:12:05;;;;;;;8.30;4.53;;;23.10;99.90;;;;;;5058966;28;20143;-48
2022/06/19 06:14:31;;;;;;;6.93;4.18;;;23.30;99.90;;;;;;5079718;28;20052;-48
2022/06/19 06:16:57;;;;;;;6.45;3.90;;;23.20;99.90;;;;;;5091402;28;20063;-47
2022/06/19 06:19:22;;;;;;;7.28;4.15;;;23.40;99.90;;;;;;5041727;28;20072;-48
2022/06/19 06:21:48;;;;;;;5.55;4.43;;;;;;;;;;5058760;28;20470;-47
2022/06/19 06:24:15;;;;;;;6.50;4.30;;;;;;;;;;5089057;28;20388;-48
2022/06/19 06:26:41;;;;;;;9.40;4.55;;;24.30;99.90;;;;;;5093680;28;20056;-47
2022/06/19 06:29:07;;;;;;;7.90;3.85;;;23.90;99.90;;;;;;5089773;28;20073;-48
2022/06/19 06:31:34;;;;;;;5.57;3.70;;;23.90;99.90;;;;;;5072313;28;20033;-48
2022/06/19 06:34:00;;;;;;;5.20;3.67;;;24.00;99.90;;;;;;5093529;28;20034;-47
2022/06/19 06:36:28;;;;;;;5.63;4.10;;;24.10;99.90;;;;;;5023323;28;20036;-47
2022/06/19 06:38:54;;;;;;;5.82;3.78;;;24.20;99.90;;;;;;5091769;28;20077;-47
2022/06/19 06:41:20;;;;;;;10.07;3.50;;;;;;;;;;5093200;28;20111;-47
2022/06/19 06:43:47;;;;;;;6.63;4.00;;;24.50;99.90;;;;;;5089194;28;20024;-47
2022/06/19 06:46:18;;;;;;;5.90;3.40;;;;;;;;;;5085550;28;20027;-47
2022/06/19 06:48:45;;;;;;;6.50;3.53;;;;;;;;;;5091312;28;20032;-47
2022/06/19 06:51:14;;;;;;;5.80;3.42;;;;;;;;;;5090124;28;20024;-48
2022/06/19 06:53:41;;;;;;;7.03;3.65;;;;;;;;;;5049195;28;20178;-47
2022/06/19 06:56:08;;;;;;;8.60;3.90;;;;;;;;;;5070958;28;20115;-47
2022/06/19 06:58:34;;;;;;;6.60;3.30;;;;;;;;;;5084083;28;20029;-47
2022/06/19 07:01:20;;;;;;;4.32;3.22;;;;;;;;;;5092396;28;20113;-47
2022/06/19 07:03:49;;;;;;;7.28;3.40;;;;;;;;;;5089120;28;20097;-47
2022/06/19 07:06:15;;;;;;;5.65;3.40;;;;;;;;;;5089869;28;20028;-47
2022/06/19 07:08:41;;;;;;;5.60;3.25;;;;;;;;;;5088686;28;20110;-47
2022/06/19 07:11:09;;;;;;;5.13;3.45;;;;;;;;;;5091369;28;20032;-47
2022/06/19 07:13:38;;;;;;;6.60;3.30;;;;;;;;;;5092337;28;20263;-47
2022/06/19 07:16:04;;;;;;;4.78;3.65;;;;;;;;;;5091622;28;20028;-48
2022/06/19 07:18:30;;;;;;;5.05;3.42;;;;;;;;;;5055374;28;20455;-48
2022/06/19 07:20:56;;;;;;;10.85;3.38;;;;;;;;;;5092347;28;20030;-47
2022/06/19 07:23:22;;;;;;;5.28;3.45;;;;;;;;;;5090215;28;20110;-48
2022/06/19 07:25:48;;;;;;;5.72;3.10;;;26.00;99.90;;;;;;5090670;28;20023;-48
2022/06/19 07:28:16;;;;;;;6.70;2.70;;;26.00;99.90;;;;;;5071872;28;20036;-47
2022/06/19 07:30:43;;;;;;;4.28;3.03;;;26.20;99.90;;;;;;5082351;28;20040;-48
2022/06/19 07:33:09;;;;;;;5.88;3.10;;;26.30;99.90;;;;;;5088534;28;20036;-47
2022/06/19 07:35:34;;;;;;;4.10;3.10;;;26.50;99.90;;;;;;5092869;28;20046;-47
2022/06/19 07:38:00;;;;;;;4.93;2.83;;;;;;;;;;5090352;28;20024;-48
2022/06/19 07:40:26;;;;;;;7.93;3.50;;;26.80;99.90;;;;;;5072611;28;20044;-48
2022/06/19 07:42:52;;;;;;;4.00;2.95;;;26.90;99.90;;;;;;5022095;28;20036;-47
2022/06/19 07:45:18;;;;;;;5.15;2.65;;;26.90;99.80;;;;;;5084929;28;20383;-47
2022/06/19 07:50:29;;;;;;;7.53;3.53;;;27.00;99.10;;;;;;5076218;28;20081;-48
2022/06/19 07:52:55;;;;;;;10.85;2.53;;;27.00;99.00;;;;;;5054109;28;20036;-47
2022/06/19 07:55:23;;;;;;;5.90;2.55;;;;;;;;;;5053300;28;20139;-48
2022/06/19 07:57:49;;;;;;;3.70;2.50;;;27.60;99.10;;;;;;5089616;28;20063;-47
2022/06/19 08:00:24;;;;;;;3.58;2.78;;;27.60;99.40;;;;;;5088136;28;20020;-48
2022/06/19 08:02:52;;;;;;;6.03;2.80;;;27.70;99.90;;;;;;5091187;28;20027;-48
2022/06/19 08:05:22;;;;;;;3.30;2.53;;;;;;;;;;5054329;28;20059;-48
2022/06/19 08:07:50;;;;;;;6.32;2.47;;;;;;;;;;5080508;28;20031;-48
2022/06/19 08:10:28;;;;;;;3.90;2.60;;;27.90;97.10;;;;;;5091914;28;20020;-47
2022/06/19 08:12:55;;;;;;;5.50;2.70;;;27.80;97.20;;;;;;5069691;28;20044;-47
2022/06/19 08:15:21;;;;;;;5.10;2.90;;;27.70;97.60;;;;;;5078369;28;20145;-48
2022/06/19 08:17:47;;;;;;;2.85;2.22;;;;;;;;;;5090475;28;20051;-47
2022/06/19 08:20:16;;;;;;;5.28;2.83;;;28.30;99.90;;;;;;5088945;28;20035;-47
2022/06/19 08:22:42;;;;;;;4.05;2.47;;;;;;;;;;5091978;28;20044;-47
2022/06/19 08:25:10;;;;;;;4.40;2.50;;;;;;;;;;5087912;28;20030;-47
2022/06/19 08:27:37;;;;;;;5.97;2.63;;;;;;;;;;5056047;28;20040;-47
2022/06/19 08:30:05;;;;;;;6.75;2.33;;;;;;;;;;5089537;28;20031;-47
2022/06/19 08:32:31;;;;;;;3.50;2.13;;;;;;;;;;5057634;28;20093;-48
2022/06/19 08:34:57;;;;;;;3.33;1.90;;;;;;;;;;5070861;28;20063;-47
2022/06/19 08:37:24;;;;;;;3.85;2.40;;;;;;;;;;5058109;28;20483;-47
2022/06/19 08:39:50;;;;;;;4.10;2.00;;;;;;;;;;5088637;28;20028;-48
2022/06/19 08:42:22;;;;;;;3.60;2.58;;;;;;;;;;5043782;28;20391;-47
2022/06/19 08:45:04;;;;;;;2.95;1.77;;;;;;;;;;5096311;28;20072;-47
2022/06/19 08:47:37;;;;;;;4.35;3.67;;;;;;;;;;5095182;28;20031;-47
2022/06/19 08:50:31;;;;;;;4.32;2.08;;;;;;;;;;5059277;28;20080;-47
2022/06/19 08:53:07;;;;;;;3.90;1.90;;;;;;;;;;5092599;28;20038;-49
2022/06/19 08:56:02;;;;;;;3.47;2.45;;;;;;;;;;5053784;28;20057;-47
2022/06/19 08:58:38;;;;;;;3.65;1.75;;;;;;;;;;5031715;28;20485;-47
2022/06/19 09:01:04;;;;;;;4.25;1.80;;;;;;;;;;5030989;28;20401;-48
2022/06/19 09:06:39;;;;;;;5.88;2.72;;;29.80;91.80;;;;;;5029170;28;20040;-48
2022/06/19 09:09:12;;;;;;;52.70;11.93;;;29.70;92.10;;;;;;5024439;28;20037;-47
2022/06/19 09:11:43;;;;;;;22.30;5.68;;;29.60;92.00;;;;;;5031714;28;20037;-47
2022/06/19 09:14:37;;;;;;;2.35;1.90;;;29.80;91.30;;;;;;4995479;28;20050;-47
2022/06/19 09:17:15;;;;;;;3.63;2.25;;;;;;;;;;5031307;28;20124;-48
2022/06/19 09:19:50;;;;;;;13.75;4.88;;;;;;;;;;5029765;28;20041;-48
2022/06/19 09:22:26;;;;;;;20.70;5.15;;;;;;;;;;5042590;28;20187;-48
2022/06/19 09:25:15;;;;;;;6.13;1.92;;;30.40;89.70;;;;;;5050756;28;20115;-48
2022/06/19 09:27:56;;;;;;;3.92;1.83;;;30.50;89.60;;;;;;5051709;28;20410;-48
2022/06/19 09:30:52;;;;;;;2.83;1.73;;;30.40;88.30;;;;;;5046579;28;20044;-48
2022/06/19 09:33:22;;;;;;;10.15;2.47;;;30.50;88.60;;;;;;5037811;28;20615;-47
2022/06/19 09:36:00;;;;;;;37.47;8.27;;;29.60;89.50;;;;;;5084016;28;20380;-47
2022/06/19 09:38:48;;;;;;;4.13;2.28;;;29.50;89.70;;;;;;5091373;28;20081;-49
2022/06/19 09:41:21;;;;;;;41.72;7.95;;;;;;;;;;5093151;28;20060;-47
2022/06/19 09:43:52;;;;;;;28.45;6.97;;;30.60;88.80;;;;;;5094337;28;20572;-48
2022/06/19 09:46:49;;;;;;;5.60;2.10;;;30.60;90.50;;;;;;5093599;28;20028;-48
2022/06/19 09:49:24;;;;;;;4.95;2.00;;;30.30;89.40;;;;;;5089437;28;20047;-47
2022/06/19 09:52:03;;;;;;;3.67;1.67;;;30.50;90.70;;;;;;5092888;28;20040;-47
2022/06/19 09:54:35;;;;;;;3.60;2.13;;;31.00;90.40;;;;;;5091668;28;20036;-48
2022/06/19 09:57:19;;;;;;;;;;;30.80;88.90;;;;;;5094029;28;20028;-47
2022/06/19 10:00:09;;;;;;;20.55;5.55;;;30.80;89.30;;;;;;5088654;28;19965;-47
2022/06/19 10:02:53;;;;;;;4.13;2.30;;;30.90;87.90;;;;;;5025754;28;20472;-47
2022/06/19 10:05:40;;;;;;;2.42;1.92;;;30.60;88.80;;;;;;5091941;28;20124;-47
2022/06/19 10:08:18;;;;;;;3.78;1.90;;;30.20;88.40;;;;;;5092724;28;20121;-47
2022/06/19 10:10:57;;;;;;;2.90;1.80;;;29.90;88.00;;;;;;5060015;28;20047;-48
2022/06/19 10:13:48;;;;;;;4.53;2.00;;;30.30;88.00;;;;;;5059798;28;20063;-48
2022/06/19 10:16:46;;;;;;;2.72;1.73;;;30.60;87.10;;;;;;5092799;28;20587;-48
2022/06/19 10:19:33;;;;;;;3.55;2.05;;;;;;;;;;5084811;28;20032;-47
2022/06/19 10:22:23;;;;;;;3.15;1.90;;;;;;;;;;5080486;28;20062;-47
2022/06/19 10:25:13;;;;;;;4.60;2.22;;;31.90;97.30;;;;;;5058700;28;20066;-48
2022/06/19 10:27:39;;;;;;;1.90;1.60;;;;;;;;;;5058528;28;20049;-47
2022/06/19 10:30:08;;;;;;;3.00;1.67;;;;;;;;;;5090478;28;20048;-48
2022/06/19 10:32:37;;;;;;;4.43;1.92;;;;;;;;;;5091192;28;20077;-47
2022/06/19 10:35:21;;;;;;;2.03;1.60;;;;;;;;;;5088227;28;20032;-48
2022/06/19 10:38:22;;;;;;;2.78;1.70;;;31.10;98.50;;;;;;5083784;28;20032;-47
2022/06/19 10:41:07;;;;;;;3.30;1.70;;;31.40;98.00;;;;;;5093924;28;20040;-48
2022/06/19 10:43:42;;;;;;;4.88;1.80;;;31.60;99.70;;;;;;5090001;28;20028;-47
2022/06/19 10:46:10;;;;;;;2.00;1.80;;;32.10;96.40;;;;;;5091865;28;20382;-47
2022/06/19 10:48:58;;;;;;;2.38;1.83;;;32.00;94.30;;;;;;5093633;28;20020;-48
2022/06/19 10:51:42;;;;;;;3.55;1.88;;;;;;;;;;5091347;28;20494;-47
2022/06/19 10:54:23;;;;;;;3.30;1.88;;;;;;;;;;5089272;28;20076;-47
2022/06/19 10:57:11;;;;;;;5.70;3.80;;;32.90;82.70;;;;;;5089786;28;20044;-47
2022/06/19 10:59:38;;;;;;;3.10;1.60;;;;;;;;;;5093452;28;20388;-47
2022/06/19 11:05:11;;;;;;;4.07;1.88;;;32.50;80.70;;;;;;5089665;28;20093;-48
2022/06/19 11:07:37;;;;;;;2.03;1.35;;;;;;;;;;5088447;28;20479;-47
2022/06/19 11:10:30;;;;;;;1.98;1.60;;;30.90;99.40;;;;;;5092324;28;20106;-47
2022/06/19 11:12:57;;;;;;;3.70;1.98;;;31.20;96.50;;;;;;5090723;28;20032;-47
2022/06/19 11:15:43;;;;;;;2.05;1.80;;;31.40;96.40;;;;;;5093402;28;20043;-47
2022/06/19 11:18:14;;;;;;;2.78;1.88;;;31.40;96.00;;;;;;5089582;28;20043;-48
2022/06/19 11:20:43;;;;;;;2.92;1.83;;;;;;;;;;5093103;28;20061;-47
2022/06/19 11:23:23;;;;;;;2.30;1.70;;;32.10;99.70;;;;;;5092283;28;20097;-48
2022/06/19 11:26:06;;;;;;;2.85;2.03;;;;;;;;;;5074409;28;20040;-47
2022/06/19 11:29:00;;;;;;;3.60;2.35;;;33.00;77.50;;;;;;5090415;28;20034;-47
2022/06/19 11:31:31;;;;;;;3.83;2.08;;;32.70;78.00;;;;;;5090373;28;20569;-47
2022/06/19 11:34:01;;;;;;;4.00;2.30;;;32.60;77.80;;;;;;5015744;28;20034;-48
2022/06/19 11:36:37;;;;;;;3.63;1.70;;;33.20;77.80;;;;;;4996652;28;20135;-47
2022/06/19 11:39:49;;;;;;;6.28;2.60;;;32.10;77.20;;;;;;5030503;28;20045;-47
2022/06/19 11:42:21;;;;;;;3.90;2.17;;;;;;;;;;4989407;28;20041;-47
2022/06/19 11:44:51;;;;;;;2.10;1.60;;;;;;;;;;5028701;28;20111;-47
2022/06/19 11:47:18;;;;;;;2.67;1.60;;;;;;;;;;5027920;28;20036;-47
2022/06/19 11:49:44;;;;;;;116.05;21.90;;;;;;;;;;5031080;28;20398;-47
2022/06/19 11:52:20;;;;;;;22.88;4.82;;;;;;;;;;5029462;28;20500;-47
2022/06/19 11:54:49;;;;;;;7.65;2.60;;;34.50;94.20;;;;;;5028932;28;20061;-47
2022/06/19 11:57:41;;;;;;;22.33;5.97;;;;;;;;;;5012257;28;20044;-48
2022/06/19 12:00:07;;;;;;;2.33;1.58;;;;;;;;;;5026392;28;20397;-48
2022/06/19 12:02:39;;;;;;;2.95;2.00;;;;;;;;;;4996382;28;20080;-47
2022/06/19 12:05:07;;;;;;;3.58;1.83;;;;;;;;;;5063137;28;20046;-47
2022/06/19 12:07:35;;;;;;;8.00;3.08;;;;;;;;;;5055378;28;20109;-47
2022/06/19 12:10:04;;;;;;;3.30;2.05;;;;;;;;;;5092164;28;20373;-48
2022/06/19 12:12:32;;;;;;;6.53;2.17;;;;;;;;;;5054137;28;20059;-47
2022/06/19 12:15:24;;;;;;;4.38;1.83;;;;;;;;;;5082257;28;20036;-47
2022/06/19 12:17:56;;;;;;;1.80;1.50;;;;;;;;;;5080870;28;20173;-47
2022/06/19 12:20:24;;;;;;;2.33;1.73;;;;;;;;;;5054775;28;20040;-48
2022/06/19 12:23:03;;;;;;;2.72;1.70;;;35.00;88.00;;;;;;5095937;28;20453;-48
2022/06/19 12:25:29;;;;;;;1.80;1.30;;;34.40;87.90;;;;;;5092853;28;20434;-48
2022/06/19 12:28:31;;;;;;;3.45;1.80;;;;;;;;;;5094309;28;20028;-47
2022/06/19 12:30:57;;;;;;;3.17;1.48;;;;;;;;;;5003606;28;20030;-48
2022/06/19 12:33:28;;;;;;;1.88;1.50;;;;;;;;;;5013406;28;20036;-48
2022/06/19 12:35:55;;;;;;;4.68;1.95;;;;;;;;;;5015024;28;20045;-47
2022/06/19 12:38:22;;;;;;;1.45;1.35;;;;;;;;;;5017880;28;20048;-48
2022/06/19 12:40:59;;;;;;;4.30;1.65;;;33.60;97.40;;;;;;5014580;28;20017;-48
2022/06/19 12:44:02;;;;;;;2.17;1.35;;;33.20;93.60;;;;;;5006256;28;20121;-48
2022/06/19 12:46:34;;;;;;;3.85;1.80;;;;;;;;;;5012240;28;20042;-47
2022/06/19 12:49:07;;;;;;;2.47;1.60;;;;;;;;;;5012977;28;20045;-48
2022/06/19 12:51:40;;;;;;;3.13;1.70;;;;;;;;;;5013247;28;20121;-47
2022/06/19 12:54:21;;;;;;;3.13;2.00;;;;;;;;;;5005031;28;20084;-47
2022/06/19 12:56:53;;;;;;;;;;;34.80;94.70;;;;;;4997746;28;20037;-47
2022/06/19 12:59:34;;;;;;;3.17;1.52;;;34.50;93.90;;;;;;4992471;28;19910;-48
2022/06/19 13:02:16;;;;;;;2.40;1.58;;;34.30;91.90;;;;;;4969866;28;20472;-48
2022/06/19 13:05:03;;;;;;;2.47;1.38;;;34.30;90.60;;;;;;5020009;28;20381;-48
2022/06/19 13:07:44;;;;;;;2.55;1.60;;;34.20;91.60;;;;;;5055940;28;20047;-48
2022/06/19 13:10:28;;;;;;;2.72;1.30;;;34.50;89.40;;;;;;5055228;28;20098;-47
2022/06/19 13:13:17;;;;;;;1.90;1.40;;;34.60;93.30;;;;;;5057081;28;20032;-48
2022/06/19 13:15:53;;;;;;;2.60;1.48;;;34.20;93.00;;;;;;5051783;28;20325;-47
2022/06/19 13:18:37;;;;;;;1.73;1.52;;;;;;;;;;5050630;28;20607;-48
2022/06/19 13:21:12;;;;;;;6.75;1.60;;;;;;;;;;5049976;28;20047;-47
2022/06/19 13:23:57;;;;;;;3.63;1.83;;;;;;;;;;5070201;28;20198;-47
2022/06/19 13:29:28;;;;;;;1.45;1.30;;;;;;;;;;5058547;28;20075;-48
2022/06/19 13:31:57;;;;;;;1.98;1.27;;;;;;;;;;5056181;28;20041;-48
2022/06/19 13:34:44;;;;;;;4.28;2.25;;;34.80;96.30;;;;;;5064177;28;20135;-47
2022/06/19 13:37:17;;;;;;;2.53;1.13;;;;;;;;;;5067516;28;20492;-48
2022/06/19 13:39:55;;;;;;;4.25;1.50;;;;;;;;;;5059632;28;20476;-48
2022/06/19 13:42:40;;;;;;;2.95;1.20;;;;;;;;;;5063546;28;20041;-47
2022/06/19 13:45:31;;;;;;;1.50;1.40;;;34.10;97.40;;;;;;5065007;28;20118;-47
2022/06/19 13:48:03;;;;;;;3.58;1.63;;;33.60;91.70;;;;;;5092242;28;20565;-47
2022/06/19 13:50:37;;;;;;;2.20;1.35;;;34.30;91.60;;;;;;5094063;28;20038;-47
2022/06/19 13:53:12;;;;;;;3.30;1.35;;;33.70;91.80;;;;;;5023419;28;20172;-47
2022/06/19 13:55:42;;;;;;;1.73;1.10;;;33.80;92.50;;;;;;5092261;28;20052;-48
2022/06/19 13:58:11;;;;;;;2.13;1.60;;;;;;;;;;5091668;28;20416;-47
2022/06/19 14:00:40;;;;;;;1.67;1.30;;;;;;;;;;5092676;28;20028;-47